Time;durP1;ratioP1;P1;durP2;ratioP2;P2;SDS_P1;SDS_P2;PMS_P1;PMS_P2;Temp;Humidity;BMP_temperature;BMP_pressure;BME280_temperature;BME280_humidity;BME280_pressure;Samples;Min_cycle;Max_cycle;Signal;HPM_P1;HPM_P2
2022/03/13 00:01:02;;;;;;;17.33;13.37;;;;;;;;;;5113117;28;20782;-72
2022/03/13 00:03:29;;;;;;;16.70;11.37;;;;;;;;;;5113405;28;20425;-72
2022/03/13 00:05:55;;;;;;;13.20;11.67;;;;;;;;;;5113412;28;20495;-73
2022/03/13 00:08:40;;;;;;;14.13;11.57;;;;;;;;;;5113281;28;20477;-73
2022/03/13 00:11:08;;;;;;;25.00;17.70;;;;;;;;;;5113559;28;20396;-73
2022/03/13 00:13:36;;;;;;;17.20;10.87;;;;;;;;;;5113165;28;20829;-73
2022/03/13 00:16:03;;;;;;;17.53;12.23;;;;;;;;;;5113230;28;20870;-72
2022/03/13 00:18:32;;;;;;;18.10;12.83;;;;;;;;;;5113420;28;20558;-72
2022/03/13 00:21:04;;;;;;;16.50;12.03;;;;;;;;;;5113549;28;20412;-72
2022/03/13 00:23:34;;;;;;;17.93;13.80;;;;;;;;;;5113782;28;20483;-72
2022/03/13 00:26:01;;;;;;;16.60;11.83;;;;;;;;;;5113117;28;20443;-72
2022/03/13 00:28:27;;;;;;;15.00;11.13;;;;;;;;;;5113361;28;20419;-72
2022/03/13 00:30:53;;;;;;;22.37;11.90;;;;;;;;;;5113086;28;20846;-75
2022/03/13 00:33:20;;;;;;;13.13;11.73;;;;;;;;;;5113014;28;20914;-72
2022/03/13 00:35:46;;;;;;;14.87;12.10;;;;;;;;;;5113058;28;20870;-73
2022/03/13 00:38:12;;;;;;;13.57;11.13;;;;;;;;;;5112893;28;20524;-72
2022/03/13 00:40:39;;;;;;;16.60;12.50;;;;;;;;;;5112941;28;20437;-72
2022/03/13 00:43:07;;;;;;;15.97;10.90;;;;;;;;;;5112965;28;20419;-72
2022/03/13 00:45:33;;;;;;;15.87;11.53;;;;;;;;;;5112979;28;20408;-72
2022/03/13 00:47:59;;;;;;;15.17;12.00;;;;;;;;;;5112673;28;20411;-72
2022/03/13 00:50:25;;;;;;;14.90;11.93;;;;;;;;;;5113281;28;20962;-72
2022/03/13 00:52:52;;;;;;;14.03;11.10;;;;;;;;;;5094688;28;20820;-72
2022/03/13 00:55:18;;;;;;;15.33;11.73;;;;;;;;;;5112919;28;20429;-72
2022/03/13 00:57:44;;;;;;;15.23;11.80;;;;;;;;;;5116714;28;20478;-72
2022/03/13 01:00:11;;;;;;;20.93;13.10;;;;;;;;;;5116602;28;20412;-73
2022/03/13 01:02:37;;;;;;;14.33;11.50;;;;;;;;;;5116535;28;20419;-72
2022/03/13 01:05:03;;;;;;;19.00;11.63;;;;;;;;;;5116784;28;20435;-72
2022/03/13 01:07:29;;;;;;;15.63;11.53;;;;;;;;;;5116993;28;20917;-73
2022/03/13 01:09:55;;;;;;;11.27;10.17;;;;;;;;;;5116436;28;20443;-72
2022/03/13 01:12:21;;;;;;;15.40;10.60;;;;;;;;;;5116335;28;20519;-72
2022/03/13 01:14:47;;;;;;;12.27;9.90;;;;;;;;;;5116301;28;20419;-73
2022/03/13 01:17:13;;;;;;;14.57;11.50;;;;;;;;;;5116216;28;20467;-72
2022/03/13 01:19:39;;;;;;;14.57;10.97;;;;;;;;;;5116601;28;20514;-72
2022/03/13 01:22:06;;;;;;;14.03;10.47;;;;;;;;;;5116166;28;20408;-72
2022/03/13 01:24:38;;;;;;;13.00;11.33;;;;;;;;;;5116343;28;20507;-72
2022/03/13 01:27:04;;;;;;;14.67;11.70;;;;;;;;;;5116153;28;20399;-74
2022/03/13 01:29:31;;;;;;;14.93;10.37;;;;;;;;;;5115920;28;20419;-73
2022/03/13 01:31:57;;;;;;;18.73;11.70;;;;;;;;;;5116047;28;20418;-74
2022/03/13 01:34:34;;;;;;;11.23;10.10;;;;;;;;;;5115943;28;20416;-74
2022/03/13 01:37:00;;;;;;;13.67;11.40;;;;;;;;;;5116409;28;20952;-71
2022/03/13 01:39:26;;;;;;;15.23;11.70;;;;;;;;;;5115886;28;20443;-72
2022/03/13 01:41:52;;;;;;;19.57;13.40;;;;;;;;;;5116291;28;20459;-74
2022/03/13 01:44:20;;;;;;;14.03;11.53;;;;;;;;;;5115785;28;20446;-74
2022/03/13 01:46:46;;;;;;;16.50;12.00;;;;;;;;;;5115850;28;20441;-74
2022/03/13 01:49:12;;;;;;;13.83;12.33;;;;;;;;;;5115462;28;20463;-74
2022/03/13 01:51:38;;;;;;;20.70;11.33;;;;;;;;;;5115989;28;20554;-74
2022/03/13 01:54:09;;;;;;;16.80;12.10;;;;;;;;;;5115596;28;20420;-74
2022/03/13 01:56:35;;;;;;;22.57;14.13;;;;;;;;;;5115942;28;20504;-74
2022/03/13 01:59:02;;;;;;;15.90;12.07;;;;;;;;;;5115457;28;20420;-74
2022/03/13 02:01:28;;;;;;;15.30;11.47;;;;;;;;;;5115699;28;20461;-74
2022/03/13 02:03:55;;;;;;;17.40;12.30;;;;;;;;;;5115608;28;20423;-74
2022/03/13 02:06:23;;;;;;;14.03;10.60;;;;;;;;;;5115671;28;20434;-74
2022/03/13 02:08:50;;;;;;;15.47;12.30;;;;;;;;;;5114591;28;20430;-74
2022/03/13 02:11:17;;;;;;;15.97;11.47;;;;;;;;;;5115398;28;20419;-74
2022/03/13 02:13:43;;;;;;;18.33;11.80;;;;;;;;;;5115069;28;20932;-73
2022/03/13 02:16:10;;;;;;;15.27;11.17;;;;;;;;;;5115242;28;20503;-73
2022/03/13 02:18:39;;;;;;;18.17;12.80;;;;;;;;;;5114993;28;20463;-73
2022/03/13 02:21:05;;;;;;;13.20;11.80;;;;;;;;;;5115105;28;20412;-73
2022/03/13 02:23:31;;;;;;;13.30;11.33;;;;;;;;;;5115271;28;20908;-74
2022/03/13 02:25:58;;;;;;;15.20;11.40;;;;;;;;;;5115246;28;20411;-73
2022/03/13 02:28:25;;;;;;;15.00;10.30;;;;;;;;;;5114898;28;20954;-74
2022/03/13 02:30:52;;;;;;;15.20;11.03;;;;;;;;;;5114909;28;20772;-74
2022/03/13 02:33:21;;;;;;;19.30;10.60;;;;;;;;;;5114801;28;20413;-74
2022/03/13 02:35:51;;;;;;;15.70;10.50;;;;;;;;;;5115057;28;20423;-74
2022/03/13 02:38:17;;;;;;;17.00;11.87;;;;;;;;;;5114667;28;20463;-74
2022/03/13 02:40:43;;;;;;;12.07;10.30;;;;;;;;;;5115161;28;20416;-74
2022/03/13 02:46:20;;;;;;;18.23;12.87;;;;;;;;;;5114661;28;20453;-74
2022/03/13 02:48:46;;;;;;;17.87;11.90;;;;;;;;;;5114639;28;20492;-74
2022/03/13 02:51:12;;;;;;;16.53;10.93;;;;;;;;;;5114749;28;20451;-74
2022/03/13 02:53:38;;;;;;;13.30;11.30;;;;;;;;;;5114377;28;20443;-74
2022/03/13 02:56:05;;;;;;;18.33;11.63;;;;;;;;;;5096235;28;20412;-73
2022/03/13 02:58:32;;;;;;;22.13;10.83;;;;;;;;;;5114129;28;20964;-73
2022/03/13 03:00:58;;;;;;;11.70;10.50;;;;;;;;;;5114554;28;20422;-74
2022/03/13 03:03:24;;;;;;;21.67;11.50;;;;;;;;;;5114121;28;20498;-74
2022/03/13 03:05:51;;;;;;;15.23;11.50;;;;;;;;;;5114484;28;20416;-74
2022/03/13 03:08:17;;;;;;;15.27;11.37;;;;;;;;;;5114122;28;20461;-74
2022/03/13 03:10:43;;;;;;;17.70;12.60;;;;;;;;;;5114146;28;20427;-74
2022/03/13 03:13:13;;;;;;;17.43;12.07;;;;;;;;;;5113963;28;20415;-74
2022/03/13 03:15:40;;;;;;;15.70;10.97;;;;;;;;;;5114527;28;20407;-74
2022/03/13 03:18:09;;;;;;;17.17;12.10;;;;;;;;;;5114231;28;20474;-74
2022/03/13 03:20:35;;;;;;;15.10;11.17;;;;;;;;;;5113370;28;20505;-74
2022/03/13 03:23:01;;;;;;;15.47;11.60;;;;;;;;;;5113885;28;20431;-74
2022/03/13 03:25:28;;;;;;;18.77;11.77;;;;;;;;;;5113866;28;20883;-74
2022/03/13 03:27:55;;;;;;;11.07;9.90;;;;;;;;;;5113750;28;20457;-74
2022/03/13 03:30:22;;;;;;;11.23;9.97;;;;;;;;;;5113750;28;20440;-74
2022/03/13 03:32:49;;;;;;;19.90;10.17;;;;;;;;;;5113647;28;20909;-73
2022/03/13 03:35:24;;;;;;;11.40;9.50;;;;;;;;;;5114010;28;20403;-73
2022/03/13 03:37:51;;;;;;;16.93;11.77;;;;;;;;;;5114283;28;20466;-73
2022/03/13 03:40:20;;;;;;;14.83;10.30;;;;;;;;;;5114019;28;20415;-73
2022/03/13 03:42:46;;;;;;;11.50;10.17;;;;;;;;;;5113814;28;20499;-74
2022/03/13 03:45:16;;;;;;;11.73;9.97;;;;;;;;;;5113589;28;20940;-74
2022/03/13 03:47:42;;;;;;;13.63;10.43;;;;;;;;;;5114182;28;20483;-74
2022/03/13 03:50:09;;;;;;;14.13;10.57;;;;;;;;;;5113396;28;20825;-74
2022/03/13 03:52:35;;;;;;;14.73;11.93;;;;;;;;;;5113961;28;20411;-73
2022/03/13 03:55:01;;;;;;;12.90;10.97;;;;;;;;;;5113735;28;20452;-74
2022/03/13 03:57:27;;;;;;;15.83;11.17;;;;;;;;;;5113555;28;20566;-74
2022/03/13 03:59:53;;;;;;;16.63;10.17;;;;;;;;;;5113430;28;20431;-73
2022/03/13 04:02:19;;;;;;;19.70;10.60;;;;;;;;;;5113693;28;20441;-74
2022/03/13 04:04:45;;;;;;;14.20;10.60;;;;;;;;;;5113528;28;20430;-74
2022/03/13 04:07:11;;;;;;;21.77;12.27;;;;;;;;;;5113452;28;20487;-74
2022/03/13 04:09:37;;;;;;;17.03;11.80;;;;;;;;;;5113674;28;20415;-74
2022/03/13 04:12:08;;;;;;;16.67;12.90;;;;;;;;;;5113308;28;20909;-74
2022/03/13 04:14:36;;;;;;;14.30;12.10;;;;;;;;;;5113243;28;20388;-74
2022/03/13 04:17:03;;;;;;;16.13;12.33;;;;;;;;;;5113181;28;20503;-73
2022/03/13 04:19:29;;;;;;;16.70;12.23;;;;;;;;;;5113298;28;20416;-73
2022/03/13 04:21:56;;;;;;;17.37;12.70;;;;;;;;;;5113556;28;20415;-74
2022/03/13 04:24:22;;;;;;;16.60;13.33;;;;;;;;;;5113719;28;20399;-74
2022/03/13 04:26:49;;;;;;;16.17;12.87;;;;;;;;;;5113106;28;20419;-74
2022/03/13 04:29:16;;;;;;;18.03;11.67;;;;;;;;;;5113417;28;20409;-74
2022/03/13 04:31:42;;;;;;;15.40;12.67;;;;;;;;;;5115495;28;20418;-74
2022/03/13 04:34:08;;;;;;;13.90;11.00;;;;;;;;;;5117393;28;20403;-74
2022/03/13 04:36:35;;;;;;;15.43;11.90;;;;;;;;;;5117294;28;20414;-74
2022/03/13 04:39:02;;;;;;;13.57;10.97;;;;;;;;;;5117128;28;20451;-74
2022/03/13 04:41:28;;;;;;;14.77;10.70;;;;;;;;;;5117572;28;20407;-73
2022/03/13 04:43:54;;;;;;;13.17;11.03;;;;;;;;;;5117206;28;20411;-74
2022/03/13 04:46:20;;;;;;;14.77;11.00;;;;;;;;;;5117086;28;20863;-73
2022/03/13 04:48:46;;;;;;;20.80;12.00;;;;;;;;;;5116609;28;20487;-74
2022/03/13 04:51:13;;;;;;;14.07;10.90;;;;;;;;;;5116809;28;20412;-74
2022/03/13 04:53:39;;;;;;;12.60;11.30;;;;;;;;;;5116980;28;20411;-74
2022/03/13 04:56:05;;;;;;;12.87;10.80;;;;;;;;;;5116764;28;20412;-74
2022/03/13 04:58:31;;;;;;;14.47;11.30;;;;;;;;;;5116445;28;20475;-73
2022/03/13 05:00:57;;;;;;;13.60;12.20;;;;;;;;;;5116536;28;20419;-73
2022/03/13 05:03:23;;;;;;;15.90;12.20;;;;;;;;;;5116564;28;20422;-74
2022/03/13 05:05:50;;;;;;;15.07;11.50;;;;;;;;;;5116565;28;20411;-73
2022/03/13 05:08:18;;;;;;;14.77;10.67;;;;;;;;;;5116453;28;20903;-74
2022/03/13 05:10:45;;;;;;;22.80;10.93;;;;;;;;;;5116528;28;20420;-74
2022/03/13 05:13:12;;;;;;;46.47;23.47;;;;;;;;;;5116288;28;20416;-74
2022/03/13 05:15:39;;;;;;;29.20;15.83;;;;;;;;;;5116421;28;20416;-74
2022/03/13 05:18:05;;;;;;;15.57;11.80;;;;;;;;;;5116467;28;21047;-74
2022/03/13 05:20:34;;;;;;;20.30;12.80;;;;;;;;;;5116570;28;20494;-74
2022/03/13 05:23:01;;;;;;;24.80;14.63;;;;;;;;;;5116270;28;20415;-74
2022/03/13 05:25:30;;;;;;;31.20;16.53;;;;;;;;;;5116376;28;20436;-74
2022/03/13 05:27:57;;;;;;;15.63;13.40;;;;;;;;;;5116431;28;20415;-74
2022/03/13 05:30:23;;;;;;;20.23;14.27;;;;;;;;;;5116420;28;20400;-73
2022/03/13 05:32:49;;;;;;;18.80;14.03;;;;;;;;;;5116601;28;20510;-73
2022/03/13 05:35:16;;;;;;;14.70;10.80;;;;;;;;;;5116035;28;20764;-74
2022/03/13 05:37:42;;;;;;;12.60;11.10;;;;;;;;;;5115902;28;20467;-73
2022/03/13 05:40:13;;;;;;;11.93;10.13;;;;;;;;;;5116003;28;20561;-74
2022/03/13 05:42:39;;;;;;;15.37;10.67;;;;;;;;;;5114986;28;20423;-73
2022/03/13 05:45:05;;;;;;;13.73;11.93;;;;;;;;;;5115849;28;20416;-74
2022/03/13 05:47:31;;;;;;;22.73;13.50;;;;;;;;;;5115942;28;20415;-74
2022/03/13 05:50:00;;;;;;;16.83;12.37;;;;;;;;;;5115625;28;20833;-74
2022/03/13 05:52:26;;;;;;;22.70;13.90;;;;;;;;;;5115976;28;20783;-74
2022/03/13 05:54:52;;;;;;;24.37;16.10;;;;;;;;;;5115636;28;20411;-74
2022/03/13 05:57:19;;;;;;;16.37;13.00;;;;;;;;;;5115408;28;20468;-74
2022/03/13 05:59:45;;;;;;;17.70;13.77;;;;;;;;;;5115820;28;20408;-73
2022/03/13 06:02:11;;;;;;;18.40;14.90;;;;;;;;;;5115758;28;20435;-74
2022/03/13 06:04:37;;;;;;;14.13;12.00;;;;;;;;;;5115616;28;20411;-74
2022/03/13 06:07:04;;;;;;;16.60;11.73;;;;;;;;;;5115448;28;20411;-74
2022/03/13 06:09:29;;;;;;;13.37;11.30;;;;;;;;;;5115323;28;20412;-74
2022/03/13 06:11:55;;;;;;;16.90;12.60;;;;;;;;;;5115539;28;20424;-73
2022/03/13 06:14:22;;;;;;;13.23;11.53;;;;;;;;;;5115222;28;20420;-73
2022/03/13 06:16:48;;;;;;;17.73;12.57;;;;;;;;;;5115182;28;20815;-74
2022/03/13 06:19:13;;;;;;;21.13;12.90;;;;;;;;;;5115155;28;21030;-73
2022/03/13 06:21:40;;;;;;;21.47;12.50;;;;;;;;;;5115080;28;20946;-74
2022/03/13 06:24:06;;;;;;;16.70;11.63;;;;;;;;;;5115294;28;20411;-74
2022/03/13 06:26:32;;;;;;;16.93;11.63;;;;;;;;;;5115033;28;20427;-74
2022/03/13 06:28:58;;;;;;;15.53;11.83;;;;;;;;;;5114765;28;20788;-73
2022/03/13 06:31:24;;;;;;;17.40;12.13;;;;;;;;;;5115148;28;20481;-74
2022/03/13 06:33:50;;;;;;;14.77;12.30;;;;;;;;;;5115140;28;20898;-73
2022/03/13 06:36:16;;;;;;;13.90;11.97;;;;;;;;;;5115061;28;20412;-74
2022/03/13 06:38:42;;;;;;;16.93;13.10;;;;;;;;;;5114861;28;20475;-73
2022/03/13 06:41:08;;;;;;;19.70;12.87;;;;;;;;;;5114969;28;20412;-73
2022/03/13 06:43:34;;;;;;;21.30;12.93;;;;;;;;;;5114528;28;20435;-74
2022/03/13 06:46:01;;;;;;;13.83;10.53;;;;;;;;;;5114835;28;20882;-74
2022/03/13 06:48:27;;;;;;;14.70;11.40;;;;;;;;;;5114359;28;20554;-74
2022/03/13 06:50:53;;;;;;;16.90;12.07;;;;;;;;;;5114505;28;20448;-74
2022/03/13 06:53:19;;;;;;;12.03;10.83;;;;;;;;;;5114301;28;20894;-74
2022/03/13 06:55:46;;;;;;;13.97;10.57;;;;;;;;;;5114410;28;20785;-73
2022/03/13 06:58:12;;;;;;;11.93;10.30;;;;;;;;;;5114424;28;20487;-73
2022/03/13 07:00:38;;;;;;;17.90;10.83;;;;;;;;;;5114691;28;20865;-74
2022/03/13 07:03:04;;;;;;;11.33;9.93;;;;;;;;;;5114757;28;20784;-74
2022/03/13 07:05:31;;;;;;;13.23;11.00;;;;;;;;;;5115025;28;20453;-73
2022/03/13 07:07:58;;;;;;;15.10;11.07;;;;;;;;;;5114126;28;20924;-74
2022/03/13 07:10:24;;;;;;;16.73;11.00;;;;;;;;;;5114735;28;20828;-73
2022/03/13 07:12:50;;;;;;;12.07;10.73;;;;;;;;;;5114076;28;20412;-74
2022/03/13 07:15:18;;;;;;;14.00;10.20;;;;;;;;;;5114057;28;20400;-74
2022/03/13 07:17:44;;;;;;;15.63;10.70;;;;;;;;;;5113858;28;20500;-73
2022/03/13 07:20:11;;;;;;;12.63;9.90;;;;;;;;;;5114100;28;20506;-74
2022/03/13 07:22:37;;;;;;;12.90;10.20;;;;;;;;;;5095540;28;20798;-71
2022/03/13 07:25:03;;;;;;;16.57;11.33;;;;;;;;;;5114153;28;20424;-71
2022/03/13 07:27:29;;;;;;;13.33;11.30;;;;;;;;;;5114014;28;20404;-73
2022/03/13 07:29:55;;;;;;;19.47;10.03;;;;;;;;;;5114087;28;20889;-74
2022/03/13 07:32:22;;;;;;;12.27;9.40;;;;;;;;;;5113795;28;20412;-73
2022/03/13 07:34:48;;;;;;;17.13;10.90;;;;;;;;;;5095452;28;20843;-74
2022/03/13 07:37:14;;;;;;;12.20;10.93;;;;;;;;;;5113680;28;20504;-73
2022/03/13 07:39:41;;;;;;;14.80;11.07;;;;;;;;;;5113923;28;20415;-74
2022/03/13 07:42:07;;;;;;;12.77;9.17;;;;;;;;;;5113580;28;20494;-73
2022/03/13 07:44:33;;;;;;;15.40;9.37;;;;;;;;;;5113781;28;20408;-74
2022/03/13 07:46:59;;;;;;;10.70;9.60;;;;;;;;;;5113591;28;20507;-74
2022/03/13 07:49:25;;;;;;;12.00;9.70;;;;;;;;;;5113422;28;20470;-73
2022/03/13 07:51:51;;;;;;;12.00;10.20;;;;;;;;;;5113511;28;20420;-73
2022/03/13 07:54:19;;;;;;;12.40;10.40;;;;;;;;;;5113787;28;20415;-74
2022/03/13 07:56:45;;;;;;;13.43;10.00;;;;;;;;;;5113646;28;20412;-74
2022/03/13 07:59:11;;;;;;;13.90;10.77;;;;;;;;;;5113712;28;20431;-73
2022/03/13 08:01:37;;;;;;;14.97;9.97;;;;;;;;;;5113286;28;20851;-73
2022/03/13 08:04:05;;;;;;;18.60;12.13;;;;;;;;;;5113256;28;20900;-74
2022/03/13 08:06:35;;;;;;;15.03;8.93;;;;;;;;;;5118057;28;20418;-74
2022/03/13 08:09:01;;;;;;;17.93;12.17;;;;;;;;;;5120008;28;20446;-74
2022/03/13 08:11:27;;;;;;;13.67;10.90;;;;;;;;;;5120327;28;20455;-74
2022/03/13 08:13:53;;;;;;;15.33;11.37;;;;;;;;;;5120311;28;20447;-74
2022/03/13 08:16:19;;;;;;;15.50;11.60;;;;;;;;;;5120659;28;20885;-74
2022/03/13 08:18:45;;;;;;;22.10;10.87;;;;;;;;;;5119906;28;20475;-74
2022/03/13 08:21:13;;;;;;;19.87;12.80;;;;;;;;;;5120594;28;20443;-74
2022/03/13 08:23:39;;;;;;;17.23;12.50;;;;;;;;;;5120048;28;20419;-74
2022/03/13 08:26:05;;;;;;;15.50;10.87;;;;;;;;;;5120490;28;20434;-74
2022/03/13 08:28:31;;;;;;;18.47;12.07;;;;;;;;;;5101632;28;20423;-74
2022/03/13 08:30:58;;;;;;;17.23;12.27;;;;;;;;;;5120280;28;20418;-74
2022/03/13 08:33:24;;;;;;;15.50;11.27;;;;;;;;;;5120197;28;20451;-74
2022/03/13 08:35:50;;;;;;;17.10;12.13;;;;;;;;;;5120175;28;20422;-74
2022/03/13 08:38:16;;;;;;;21.30;12.10;;;;;;;;;;5120055;28;20467;-73
2022/03/13 08:40:42;;;;;;;18.00;11.73;;;;;;;;;;5120095;28;20946;-73
2022/03/13 08:43:08;;;;;;;16.90;12.37;;;;;;;;;;5119751;28;20752;-73
2022/03/13 08:45:34;;;;;;;20.90;12.73;;;;;;;;;;5119829;28;20415;-73
2022/03/13 08:48:00;;;;;;;22.77;12.83;;;;;;;;;;5119666;28;20419;-73
2022/03/13 08:50:26;;;;;;;22.53;12.40;;;;;;;;;;5120037;28;20427;-73
2022/03/13 08:52:52;;;;;;;18.83;12.53;;;;;;;;;;5120208;28;20791;-73
2022/03/13 08:55:19;;;;;;;16.07;11.50;;;;;;;;;;5119996;28;20416;-73
2022/03/13 08:57:46;;;;;;;18.00;13.07;;;;;;;;;;5119602;28;20467;-73
2022/03/13 09:00:14;;;;;;;15.60;11.83;;;;;;;;;;5119707;28;20913;-72
2022/03/13 09:02:40;;;;;;;14.60;12.10;;;;;;;;;;5119636;28;20410;-73
2022/03/13 09:05:06;;;;;;;18.53;12.50;;;;;;;;;;5119633;28;20412;-73
2022/03/13 09:07:32;;;;;;;22.57;14.90;;;;;;;;;;5119620;28;20403;-73
2022/03/13 09:09:58;;;;;;;21.10;13.03;;;;;;;;;;5119866;28;20426;-72
2022/03/13 09:12:24;;;;;;;20.70;13.40;;;;;;;;;;5119563;28;20507;-73
2022/03/13 09:14:50;;;;;;;18.10;12.70;;;;;;;;;;5119553;28;20508;-73
2022/03/13 09:17:17;;;;;;;12.10;10.50;;;;;;;;;;5118112;28;20573;-73
2022/03/13 09:19:44;;;;;;;25.30;13.07;;;;;;;;;;5116372;28;20444;-73
2022/03/13 09:22:13;;;;;;;22.80;12.60;;;;;;;;;;5116174;28;20422;-73
2022/03/13 09:24:39;;;;;;;18.00;11.50;;;;;;;;;;5116233;28;20502;-73
2022/03/13 09:27:05;;;;;;;17.00;12.33;;;;;;;;;;5116206;28;20455;-74
2022/03/13 09:29:31;;;;;;;20.23;11.50;;;;;;;;;;5116439;28;20811;-74
2022/03/13 09:31:57;;;;;;;18.73;13.33;;;;;;;;;;5116643;28;20419;-73
2022/03/13 09:34:24;;;;;;;19.20;12.07;;;;;;;;;;5116313;28;20461;-73
2022/03/13 09:36:50;;;;;;;16.70;12.23;;;;;;;;;;5116483;28;20898;-73
2022/03/13 09:39:16;;;;;;;18.90;13.60;;;;;;;;;;5115890;28;20453;-73
2022/03/13 09:41:42;;;;;;;19.20;12.90;;;;;;;;;;5097567;28;20948;-74
2022/03/13 09:44:08;;;;;;;25.57;13.30;;;;;;;;;;5116156;28;20415;-73
2022/03/13 09:46:38;;;;;;;18.77;12.60;;;;;;;;;;5116061;28;20508;-74
2022/03/13 09:49:04;;;;;;;30.10;11.80;;;;;;;;;;5115593;28;20616;-73
2022/03/13 09:51:30;;;;;;;19.53;13.70;;;;;;;;;;5115619;28;20424;-70
2022/03/13 09:53:57;;;;;;;18.40;12.97;;;;;;;;;;5115688;28;20439;-73
2022/03/13 09:56:23;;;;;;;22.43;13.77;;;;;;;;;;5097429;28;20420;-73
2022/03/13 09:58:49;;;;;;;19.00;13.53;;;;;;;;;;5115468;28;20463;-73
2022/03/13 10:01:15;;;;;;;18.53;13.67;;;;;;;;;;5115509;28;20431;-74
2022/03/13 10:03:41;;;;;;;23.70;14.93;;;;;;;;;;5115435;28;20419;-74
2022/03/13 10:06:07;;;;;;;19.07;12.70;;;;;;;;;;5115968;28;20404;-74
2022/03/13 10:08:34;;;;;;;21.40;14.30;;;;;;;;;;5097181;28;20424;-74
2022/03/13 10:11:02;;;;;;;20.40;16.23;;;;;;;;;;5115313;28;20420;-73
2022/03/13 10:16:37;;;;;;;24.13;14.90;;;;;;;;;;5115301;28;20794;-73
2022/03/13 10:19:19;;;;;;;23.20;15.00;;;;;;;;;;5115456;28;20531;-73
2022/03/13 10:22:07;;;;;;;23.30;14.17;;;;;;;;;;5115173;28;20775;-74
2022/03/13 10:24:41;;;;;;;15.87;11.47;;;;;;;;;;5115398;28;20760;-74
2022/03/13 10:27:20;;;;;;;24.50;16.00;;;;;;;;;;5115331;28;20415;-74
2022/03/13 10:29:48;;;;;;;19.43;12.60;;;;;;;;;;5114561;28;20415;-73
2022/03/13 10:32:14;;;;;;;19.23;13.88;;;;;;;;;;5114976;28;20399;-67
2022/03/13 10:34:40;;;;;;;21.03;14.93;;;;;;;;;;5115101;28;20217;-80
2022/03/13 10:37:06;;;;;;;25.37;14.30;;;;;;;;;;5114767;28;20455;-73
2022/03/13 10:39:36;;;;;;;19.07;12.87;;;;;;;;;;5115504;28;20427;-73
2022/03/13 10:42:03;;;;;;;22.03;14.80;;;;;;;;;;5114973;28;20428;-74
2022/03/13 10:44:36;;;;;;;20.87;14.47;;;;;;;;;;5114988;28;20840;-73
2022/03/13 10:47:08;;;;;;;20.80;14.67;;;;;;;;;;5114632;28;20394;-73
2022/03/13 10:49:45;;;;;;;18.00;14.03;;;;;;;;;;5114457;28;20817;-74
2022/03/13 10:52:25;;;;;;;22.13;14.70;;;;;;;;;;5114799;28;20511;-74
2022/03/13 10:54:51;;;;;;;20.57;13.50;;;;;;;;;;5114782;28;20411;-74
2022/03/13 10:57:18;;;;;;;19.10;14.07;;;;;;;;;;5114621;28;20539;-74
2022/03/13 10:59:44;;;;;;;19.60;13.93;;;;;;;;;;5114259;28;20435;-73
2022/03/13 11:02:17;;;;;;;21.80;15.07;;;;;;;;;;5114421;28;20489;-75
2022/03/13 11:04:55;;;;;;;21.40;15.17;;;;;;;;;;5114203;28;20414;-74
2022/03/13 11:07:21;;;;;;;24.30;15.43;;;;;;;;;;5114315;28;20873;-74
2022/03/13 11:09:47;;;;;;;21.70;14.67;;;;;;;;;;5114473;28;20412;-74
2022/03/13 11:12:21;;;;;;;31.23;18.77;;;;;;;;;;5114180;28;20539;-73
2022/03/13 11:14:52;;;;;;;21.43;15.10;;;;;;;;;;5114393;28;20776;-74
2022/03/13 11:17:20;;;;;;;20.57;13.73;;;;;;;;;;5113932;28;20941;-71
2022/03/13 11:19:50;;;;;;;27.77;15.10;;;;;;;;;;5114183;28;20420;-71
2022/03/13 11:22:17;;;;;;;28.30;14.97;;;;;;;;;;5114238;28;20407;-71
2022/03/13 11:24:44;;;;;;;25.70;16.13;;;;;;;;;;5114095;28;20518;-71
2022/03/13 11:27:11;;;;;;;25.37;13.90;;;;;;;;;;5113772;28;20439;-70
2022/03/13 11:29:47;;;;;;;22.93;15.57;;;;;;;;;;5113849;28;20420;-73
2022/03/13 11:32:32;;;;;;;20.13;13.57;;;;;;;;;;5114046;28;20412;-71
2022/03/13 11:35:13;;;;;;;20.70;13.83;;;;;;;;;;5114010;28;20416;-72
2022/03/13 11:37:43;;;;;;;21.30;15.10;;;;;;;;;;5113549;28;20952;-72
2022/03/13 11:40:11;;;;;;;17.70;13.40;;;;;;;;;;5112786;28;20506;-72
2022/03/13 11:42:47;;;;;;;21.50;13.97;;;;;;;;;;5113754;28;20495;-72
2022/03/13 11:45:27;;;;;;;24.27;14.57;;;;;;;;;;5113778;28;20499;-72
2022/03/13 11:47:53;;;;;;;26.63;14.37;;;;;;;;;;5113542;28;20404;-73
2022/03/13 11:50:19;;;;;;;18.20;12.80;;;;;;;;;;5113902;28;20418;-73
2022/03/13 11:52:45;;;;;;;24.13;14.77;;;;;;;;;;5113598;28;20414;-72
2022/03/13 11:55:13;;;;;;;21.13;13.83;;;;;;;;;;5113690;28;20428;-73
2022/03/13 11:57:43;;;;;;;22.20;14.60;;;;;;;;;;5113488;28;20474;-72
2022/03/13 12:00:11;;;;;;;21.27;13.90;;;;;;;;;;5114007;28;20740;-72
2022/03/13 12:02:41;;;;;;;20.70;13.63;;;;;;;;;;5113685;28;20423;-72
2022/03/13 12:05:28;;;;;;;18.50;13.13;;;;;;;;;;5113769;28;20412;-72
2022/03/13 12:07:55;;;;;;;20.53;14.20;;;;;;;;;;5113657;28;20423;-72
2022/03/13 12:10:30;;;;;;;22.50;15.50;;;;;;;;;;5113313;28;20404;-72
2022/03/13 12:13:03;;;;;;;17.77;12.90;;;;;;;;;;5113434;28;20415;-72
2022/03/13 12:15:29;;;;;;;22.33;13.57;;;;;;;;;;5113185;28;20412;-72
2022/03/13 12:17:57;;;;;;;24.30;14.17;;;;;;;;;;5113083;28;20960;-72
2022/03/13 12:20:24;;;;;;;20.83;14.93;;;;;;;;;;5113488;28;20420;-73
2022/03/13 12:22:57;;;;;;;19.93;13.03;;;;;;;;;;5113055;28;20420;-72
2022/03/13 12:25:25;;;;;;;24.73;14.83;;;;;;;;;;5113120;28;20418;-72
2022/03/13 12:27:52;;;;;;;26.47;16.17;;;;;;;;;;5113284;28;20474;-72
2022/03/13 12:30:26;;;;;;;22.27;14.23;;;;;;;;;;5113451;28;20423;-72
2022/03/13 12:33:02;;;;;;;9.70;8.33;;;;;;;;;;5113026;28;20415;-72
2022/03/13 12:35:28;;;;;;;25.13;16.30;;;;;;;;;;5113099;28;20476;-74
2022/03/13 12:38:01;;;;;;;25.23;14.20;;;;;;;;;;5113013;28;20471;-72
2022/03/13 12:40:28;;;;;;;17.60;13.80;;;;;;;;;;5113437;28;20392;-72
2022/03/13 12:42:55;;;;;;;22.77;13.43;;;;;;;;;;5113711;28;20737;-72
2022/03/13 12:45:22;;;;;;;27.40;14.73;;;;;;;;;;5113238;28;20434;-72
2022/03/13 12:47:49;;;;;;;39.50;17.07;;;;;;;;;;5113045;28;20476;-72
2022/03/13 12:50:17;;;;;;;25.50;16.40;;;;;;;;;;5092919;28;20459;-72
2022/03/13 12:52:43;;;;;;;22.27;15.20;;;;;;;;;;5094740;28;20405;-72
2022/03/13 12:55:10;;;;;;;26.30;16.03;;;;;;;;;;5096726;28;20421;-72
2022/03/13 12:57:36;;;;;;;36.50;21.30;;;;;;;;;;5096084;28;20482;-72
2022/03/13 13:00:04;;;;;;;25.33;17.40;;;;;;;;;;5096318;28;20466;-71
2022/03/13 13:02:32;;;;;;;34.20;17.10;;;;;;;;;;5096324;28;20417;-72
2022/03/13 13:05:04;;;;;;;22.27;15.20;;;;;;;;;;5096177;28;20914;-73
2022/03/13 13:07:34;;;;;;;28.03;18.13;;;;;;;;;;5096135;28;20761;-72
2022/03/13 13:10:01;;;;;;;24.87;17.87;;;;;;;;;;5096250;28;20420;-72
2022/03/13 13:12:33;;;;;;;22.13;15.10;;;;;;;;;;5095919;28;20423;-72
2022/03/13 13:15:00;;;;;;;23.63;16.10;;;;;;;;;;5096269;28;20466;-71
2022/03/13 13:17:27;;;;;;;29.77;17.10;;;;;;;;;;5096061;28;20487;-71
2022/03/13 13:19:54;;;;;;;24.60;15.73;;;;;;;;;;5095878;28;20432;-71
2022/03/13 13:22:31;;;;;;;21.30;14.50;;;;;;;;;;5096233;28;20529;-71
2022/03/13 13:24:58;;;;;;;24.60;15.43;;;;;;;;;;5095411;28;20435;-72
2022/03/13 13:27:51;;;;;;;29.53;16.30;;;;;;;;;;5094948;28;20417;-72
2022/03/13 13:30:29;;;;;;;27.17;16.90;;;;;;;;;;5085238;28;20961;-72
2022/03/13 13:33:12;;;;;;;24.50;16.40;;;;;;;;;;5095594;28;20419;-72
2022/03/13 13:35:44;;;;;;;20.00;13.57;;;;;;;;;;5095599;28;20416;-72
2022/03/13 13:38:14;;;;;;;23.20;15.43;;;;;;;;;;5095738;28;20494;-72
2022/03/13 13:40:46;;;;;;;33.40;17.97;;;;;;;;;;5095465;28;20416;-72
2022/03/13 13:43:30;;;;;;;13.17;9.33;;;;;;;;;;5095691;28;20421;-72
2022/03/13 13:46:08;;;;;;;24.87;16.93;;;;;;;;;;5095738;28;20428;-72
2022/03/13 13:48:45;;;;;;;24.00;15.33;;;;;;;;;;5101625;28;20459;-72
2022/03/13 13:51:13;;;;;;;17.77;12.80;;;;;;;;;;5115700;28;20411;-72
2022/03/13 13:53:57;;;;;;;23.57;15.27;;;;;;;;;;5115443;28;20412;-72
2022/03/13 13:56:26;;;;;;;33.80;16.10;;;;;;;;;;5115644;28;20408;-72
2022/03/13 13:58:52;;;;;;;21.30;15.70;;;;;;;;;;5115707;28;20505;-72
2022/03/13 14:01:24;;;;;;;26.83;14.47;;;;;;;;;;5115758;28;20408;-72
2022/03/13 14:03:51;;;;;;;19.47;13.60;;;;;;;;;;5114300;28;20444;-73
2022/03/13 14:06:20;;;;;;;24.77;15.70;;;;;;;;;;5115595;28;20408;-68
2022/03/13 14:08:47;;;;;;;26.57;15.47;;;;;;;;;;5115504;28;20408;-67
2022/03/13 14:11:14;;;;;;;24.50;15.87;;;;;;;;;;5116122;28;20428;-72
2022/03/13 14:13:40;;;;;;;19.07;12.77;;;;;;;;;;5115800;28;20420;-72
2022/03/13 14:16:06;;;;;;;25.87;16.27;;;;;;;;;;5115511;28;20552;-72
2022/03/13 14:18:32;;;;;;;22.87;15.07;;;;;;;;;;5115238;28;20475;-72
2022/03/13 14:20:58;;;;;;;30.53;16.27;;;;;;;;;;5115638;28;20468;-73
2022/03/13 14:23:24;;;;;;;29.47;16.90;;;;;;;;;;5115535;28;20415;-72
2022/03/13 14:25:50;;;;;;;24.43;15.80;;;;;;;;;;5114889;28;20886;-72
2022/03/13 14:28:20;;;;;;;18.67;11.90;;;;;;;;;;5114684;28;20569;-72